sensor_id;sensor_type;location;lat;lon;timestamp;pressure;altitude;pressure_sealevel;temperature;humidity
6859;BME280;3468;42.824;23.240;2022-11-14T00:02:21;-15643.84;;;2.50;100.00
6859;BME280;3468;42.824;23.240;2022-11-14T00:04:49;-15644.06;;;2.51;100.00
6859;BME280;3468;42.824;23.240;2022-11-14T00:07:16;-15643.13;;;2.47;100.00
6859;BME280;3468;42.824;23.240;2022-11-14T00:09:43;-15642.66;;;2.45;100.00
6859;BME280;3468;42.824;23.240;2022-11-14T00:12:10;-15642.91;;;2.46;100.00
6859;BME280;3468;42.824;23.240;2022-11-14T00:14:38;-15642.66;;;2.45;100.00
6859;BME280;3468;42.824;23.240;2022-11-14T00:17:05;-15642.31;;;2.44;100.00
6859;BME280;3468;42.824;23.240;2022-11-14T00:19:31;-15642.56;;;2.45;100.00
6859;BME280;3468;42.824;23.240;2022-11-14T00:21:59;-15637.03;;;2.21;100.00
6859;BME280;3468;42.824;23.240;2022-11-14T00:24:26;-15644.06;;;2.51;100.00
6859;BME280;3468;42.824;23.240;2022-11-14T00:26:53;-15637.16;;;2.22;100.00
6859;BME280;3468;42.824;23.240;2022-11-14T00:29:20;-15643.50;;;2.48;100.00
6859;BME280;3468;42.824;23.240;2022-11-14T00:31:46;-15644.31;;;2.52;100.00
6859;BME280;3468;42.824;23.240;2022-11-14T00:34:13;-15635.53;;;2.15;100.00
6859;BME280;3468;42.824;23.240;2022-11-14T00:36:40;-15643.59;;;2.49;100.00
6859;BME280;3468;42.824;23.240;2022-11-14T00:39:11;-15642.66;;;2.45;100.00
6859;BME280;3468;42.824;23.240;2022-11-14T00:41:38;-15641.16;;;2.39;100.00
6859;BME280;3468;42.824;23.240;2022-11-14T00:44:05;-15634.81;;;2.12;100.00
6859;BME280;3468;42.824;23.240;2022-11-14T00:46:32;-15634.34;;;2.10;100.00
6859;BME280;3468;42.824;23.240;2022-11-14T00:48:59;-15639.16;;;2.30;100.00
6859;BME280;3468;42.824;23.240;2022-11-14T00:51:26;-15634.00;;;2.08;100.00
6859;BME280;3468;42.824;23.240;2022-11-14T00:53:53;-15638.22;;;2.26;100.00
6859;BME280;3468;42.824;23.240;2022-11-14T00:56:21;-15638.69;;;2.28;100.00
6859;BME280;3468;42.824;23.240;2022-11-14T00:58:47;-15636.22;;;2.18;100.00
6859;BME280;3468;42.824;23.240;2022-11-14T01:01:14;-15635.28;;;2.14;100.00
6859;BME280;3468;42.824;23.240;2022-11-14T01:03:41;-15636.47;;;2.19;100.00
6859;BME280;3468;42.824;23.240;2022-11-14T01:06:10;-15637.03;;;2.21;100.00
6859;BME280;3468;42.824;23.240;2022-11-14T01:08:38;-15639.16;;;2.30;100.00
6859;BME280;3468;42.824;23.240;2022-11-14T01:11:08;-15640.91;;;2.38;100.00
6859;BME280;3468;42.824;23.240;2022-11-14T01:13:37;-15637.03;;;2.21;100.00
6859;BME280;3468;42.824;23.240;2022-11-14T01:16:04;-15639.75;;;2.33;100.00
6859;BME280;3468;42.824;23.240;2022-11-14T01:18:31;-15642.91;;;2.46;100.00
6859;BME280;3468;42.824;23.240;2022-11-14T01:20:58;-15637.50;;;2.23;100.00
6859;BME280;3468;42.824;23.240;2022-11-14T01:23:25;-15643.38;;;2.48;100.00
6859;BME280;3468;42.824;23.240;2022-11-14T01:25:52;-15646.66;;;2.62;100.00
6859;BME280;3468;42.824;23.240;2022-11-14T01:28:18;-15646.66;;;2.62;100.00
6859;BME280;3468;42.824;23.240;2022-11-14T01:30:47;-15646.41;;;2.61;100.00
6859;BME280;3468;42.824;23.240;2022-11-14T01:33:13;-15647.25;;;2.64;100.00
6859;BME280;3468;42.824;23.240;2022-11-14T01:35:40;-15648.53;;;2.70;100.00
6859;BME280;3468;42.824;23.240;2022-11-14T01:38:11;-15641.38;;;2.40;100.00
6859;BME280;3468;42.824;23.240;2022-11-14T01:40:40;-15647.81;;;2.67;100.00
6859;BME280;3468;42.824;23.240;2022-11-14T01:43:29;-15649.22;;;2.73;100.00
6859;BME280;3468;42.824;23.240;2022-11-14T01:46:00;-15648.75;;;2.71;100.00
6859;BME280;3468;42.824;23.240;2022-11-14T01:48:32;-15648.75;;;2.71;100.00
6859;BME280;3468;42.824;23.240;2022-11-14T01:51:06;-15647.59;;;2.66;100.00
6859;BME280;3468;42.824;23.240;2022-11-14T01:53:36;-15651.44;;;2.82;100.00
6859;BME280;3468;42.824;23.240;2022-11-14T01:56:05;-15647.34;;;2.65;100.00
6859;BME280;3468;42.824;23.240;2022-11-14T01:58:34;-15647.34;;;2.65;100.00
6859;BME280;3468;42.824;23.240;2022-11-14T02:01:04;-15646.53;;;2.61;100.00
6859;BME280;3468;42.824;23.240;2022-11-14T02:03:32;-15645.47;;;2.57;100.00
6859;BME280;3468;42.824;23.240;2022-11-14T02:06:02;-15645.38;;;2.56;100.00
6859;BME280;3468;42.824;23.240;2022-11-14T02:08:29;-15645.13;;;2.55;100.00
6859;BME280;3468;42.824;23.240;2022-11-14T02:10:55;-15637.28;;;2.22;100.00
6859;BME280;3468;42.824;23.240;2022-11-14T02:13:22;-15642.56;;;2.45;100.00
6859;BME280;3468;42.824;23.240;2022-11-14T02:15:49;-15647.25;;;2.64;100.00
6859;BME280;3468;42.824;23.240;2022-11-14T02:18:18;-15647.25;;;2.64;100.00
6859;BME280;3468;42.824;23.240;2022-11-14T02:20:46;-15649.22;;;2.73;100.00
6859;BME280;3468;42.824;23.240;2022-11-14T02:23:13;-15649.81;;;2.75;100.00
6859;BME280;3468;42.824;23.240;2022-11-14T02:25:42;-15649.69;;;2.75;100.00
6859;BME280;3468;42.824;23.240;2022-11-14T02:28:09;-15650.41;;;2.78;100.00
6859;BME280;3468;42.824;23.240;2022-11-14T02:30:36;-15651.34;;;2.82;100.00
6859;BME280;3468;42.824;23.240;2022-11-14T02:33:03;-15653.22;;;2.89;100.00
6859;BME280;3468;42.824;23.240;2022-11-14T02:35:29;-15654.50;;;2.95;100.00
6859;BME280;3468;42.824;23.240;2022-11-14T02:37:58;-15657.66;;;3.08;100.00
6859;BME280;3468;42.824;23.240;2022-11-14T02:40:24;-15660.00;;;3.18;100.00
6859;BME280;3468;42.824;23.240;2022-11-14T02:42:51;-15658.13;;;3.10;100.00
6859;BME280;3468;42.824;23.240;2022-11-14T02:45:18;-15664.09;;;3.35;100.00
6859;BME280;3468;42.824;23.240;2022-11-14T02:47:45;-15664.69;;;3.38;100.00
6859;BME280;3468;42.824;23.240;2022-11-14T02:50:12;-15666.31;;;3.45;100.00
6859;BME280;3468;42.824;23.240;2022-11-14T02:52:39;-15664.69;;;3.38;100.00
6859;BME280;3468;42.824;23.240;2022-11-14T02:55:08;-15661.53;;;3.25;100.00
6859;BME280;3468;42.824;23.240;2022-11-14T02:57:35;-15663.97;;;3.35;100.00
6859;BME280;3468;42.824;23.240;2022-11-14T03:00:03;-15664.81;;;3.38;100.00
6859;BME280;3468;42.824;23.240;2022-11-14T03:02:30;-15664.56;;;3.37;100.00
6859;BME280;3468;42.824;23.240;2022-11-14T03:04:57;-15663.97;;;3.35;100.00
6859;BME280;3468;42.824;23.240;2022-11-14T03:07:24;-15665.16;;;3.40;100.00
6859;BME280;3468;42.824;23.240;2022-11-14T03:09:50;-15666.78;;;3.47;100.00
6859;BME280;3468;42.824;23.240;2022-11-14T03:12:19;-15667.16;;;3.48;100.00
6859;BME280;3468;42.824;23.240;2022-11-14T03:14:46;-15666.78;;;3.47;100.00
6859;BME280;3468;42.824;23.240;2022-11-14T03:17:12;-15661.88;;;3.26;100.00
6859;BME280;3468;42.824;23.240;2022-11-14T03:19:39;-15667.03;;;3.48;100.00
6859;BME280;3468;42.824;23.240;2022-11-14T03:22:06;-15667.72;;;3.51;100.00
6859;BME280;3468;42.824;23.240;2022-11-14T03:24:33;-15669.25;;;3.57;100.00
6859;BME280;3468;42.824;23.240;2022-11-14T03:26:59;-15668.19;;;3.53;100.00
6859;BME280;3468;42.824;23.240;2022-11-14T03:29:27;-15664.69;;;3.38;100.00
6859;BME280;3468;42.824;23.240;2022-11-14T03:31:54;-15663.16;;;3.31;100.00
6859;BME280;3468;42.824;23.240;2022-11-14T03:34:21;-15661.88;;;3.26;100.00
6859;BME280;3468;42.824;23.240;2022-11-14T03:36:48;-15662.56;;;3.29;100.00
6859;BME280;3468;42.824;23.240;2022-11-14T03:39:14;-15663.63;;;3.33;100.00
6859;BME280;3468;42.824;23.240;2022-11-14T03:41:41;-15659.19;;;3.15;100.00
6859;BME280;3468;42.824;23.240;2022-11-14T03:44:08;-15666.31;;;3.45;100.00
6859;BME280;3468;42.824;23.240;2022-11-14T03:46:36;-15667.38;;;3.49;100.00
6859;BME280;3468;42.824;23.240;2022-11-14T03:49:03;-15667.25;;;3.49;100.00
6859;BME280;3468;42.824;23.240;2022-11-14T03:51:30;-15665.75;;;3.42;100.00
6859;BME280;3468;42.824;23.240;2022-11-14T03:53:57;-15665.63;;;3.42;100.00
6859;BME280;3468;42.824;23.240;2022-11-14T03:56:23;-15667.03;;;3.48;100.00
6859;BME280;3468;42.824;23.240;2022-11-14T03:58:50;-15663.63;;;3.33;100.00
6859;BME280;3468;42.824;23.240;2022-11-14T04:01:17;-15661.66;;;3.25;100.00
6859;BME280;3468;42.824;23.240;2022-11-14T04:03:45;-15657.66;;;3.08;100.00
6859;BME280;3468;42.824;23.240;2022-11-14T04:06:12;-15656.03;;;3.01;100.00
6859;BME280;3468;42.824;23.240;2022-11-14T04:08:39;-15650.88;;;2.80;100.00
6859;BME280;3468;42.824;23.240;2022-11-14T04:11:06;-15649.22;;;2.73;100.00
6859;BME280;3468;42.824;23.240;2022-11-14T04:13:33;-15651.44;;;2.82;100.00
6859;BME280;3468;42.824;23.240;2022-11-14T04:16:00;-15651.56;;;2.83;100.00
6859;BME280;3468;42.824;23.240;2022-11-14T04:18:27;-15646.06;;;2.59;100.00
6859;BME280;3468;42.824;23.240;2022-11-14T04:20:55;-15650.06;;;2.76;100.00
6859;BME280;3468;42.824;23.240;2022-11-14T04:23:22;-15651.22;;;2.81;100.00
6859;BME280;3468;42.824;23.240;2022-11-14T04:25:48;-15652.75;;;2.87;100.00
6859;BME280;3468;42.824;23.240;2022-11-14T04:28:15;-15649.81;;;2.75;100.00
6859;BME280;3468;42.824;23.240;2022-11-14T04:30:42;-15654.25;;;2.94;100.00
6859;BME280;3468;42.824;23.240;2022-11-14T04:33:10;-15653.91;;;2.92;100.00
6859;BME280;3468;42.824;23.240;2022-11-14T04:35:38;-15653.91;;;2.92;100.00
6859;BME280;3468;42.824;23.240;2022-11-14T04:38:07;-15654.25;;;2.94;100.00
6859;BME280;3468;42.824;23.240;2022-11-14T04:40:34;-15654.16;;;2.93;100.00
6859;BME280;3468;42.824;23.240;2022-11-14T04:43:01;-15655.44;;;2.99;100.00
6859;BME280;3468;42.824;23.240;2022-11-14T04:45:28;-15655.78;;;3.00;100.00
6859;BME280;3468;42.824;23.240;2022-11-14T04:47:54;-15642.91;;;2.46;100.00
6859;BME280;3468;42.824;23.240;2022-11-14T04:50:21;-15649.81;;;2.75;100.00
6859;BME280;3468;42.824;23.240;2022-11-14T04:52:50;-15645.38;;;2.56;100.00
6859;BME280;3468;42.824;23.240;2022-11-14T04:55:20;-15638.69;;;2.28;100.00
6859;BME280;3468;42.824;23.240;2022-11-14T04:57:46;-15648.88;;;2.71;100.00
6859;BME280;3468;42.824;23.240;2022-11-14T05:00:14;-15643.38;;;2.48;100.00
6859;BME280;3468;42.824;23.240;2022-11-14T05:02:41;-15647.47;;;2.65;100.00
6859;BME280;3468;42.824;23.240;2022-11-14T05:05:08;-15648.41;;;2.69;100.00
6859;BME280;3468;42.824;23.240;2022-11-14T05:07:35;-15646.66;;;2.62;100.00
6859;BME280;3468;42.824;23.240;2022-11-14T05:10:02;-15648.19;;;2.68;100.00
6859;BME280;3468;42.824;23.240;2022-11-14T05:12:30;-15650.88;;;2.80;100.00
6859;BME280;3468;42.824;23.240;2022-11-14T05:14:57;-15652.97;;;2.88;100.00
6859;BME280;3468;42.824;23.240;2022-11-14T05:17:24;-15652.03;;;2.85;100.00
6859;BME280;3468;42.824;23.240;2022-11-14T05:19:50;-15652.28;;;2.86;100.00
6859;BME280;3468;42.824;23.240;2022-11-14T05:22:17;-15653.44;;;2.90;100.00
6859;BME280;3468;42.824;23.240;2022-11-14T05:24:44;-15654.25;;;2.94;100.00
6859;BME280;3468;42.824;23.240;2022-11-14T05:27:11;-15655.44;;;2.99;100.00
6859;BME280;3468;42.824;23.240;2022-11-14T05:29:39;-15656.72;;;3.04;100.00
6859;BME280;3468;42.824;23.240;2022-11-14T05:32:06;-15657.44;;;3.07;100.00
6859;BME280;3468;42.824;23.240;2022-11-14T05:34:32;-15656.97;;;3.05;100.00
6859;BME280;3468;42.824;23.240;2022-11-14T05:36:59;-15658.13;;;3.10;100.00
6859;BME280;3468;42.824;23.240;2022-11-14T05:39:28;-15660.00;;;3.18;100.00
6859;BME280;3468;42.824;23.240;2022-11-14T05:41:55;-15661.66;;;3.25;100.00
6859;BME280;3468;42.824;23.240;2022-11-14T05:44:21;-15661.66;;;3.25;100.00
6859;BME280;3468;42.824;23.240;2022-11-14T05:46:49;-15661.41;;;3.24;100.00
6859;BME280;3468;42.824;23.240;2022-11-14T05:49:16;-15662.34;;;3.28;100.00
6859;BME280;3468;42.824;23.240;2022-11-14T05:51:43;-15663.03;;;3.31;100.00
6859;BME280;3468;42.824;23.240;2022-11-14T05:54:09;-15659.31;;;3.15;100.00
6859;BME280;3468;42.824;23.240;2022-11-14T05:56:36;-15661.16;;;3.23;100.00
6859;BME280;3468;42.824;23.240;2022-11-14T05:59:03;-15661.66;;;3.25;100.00
6859;BME280;3468;42.824;23.240;2022-11-14T06:01:30;-15661.41;;;3.24;100.00
6859;BME280;3468;42.824;23.240;2022-11-14T06:03:58;-15663.03;;;3.31;100.00
6859;BME280;3468;42.824;23.240;2022-11-14T06:06:24;-15665.63;;;3.42;100.00
6859;BME280;3468;42.824;23.240;2022-11-14T06:08:51;-15666.91;;;3.47;100.00
6859;BME280;3468;42.824;23.240;2022-11-14T06:11:19;-15668.91;;;3.56;100.00
6859;BME280;3468;42.824;23.240;2022-11-14T06:13:46;-15668.78;;;3.55;100.00
6859;BME280;3468;42.824;23.240;2022-11-14T06:16:16;-15669.38;;;3.58;100.00
6859;BME280;3468;42.824;23.240;2022-11-14T06:18:44;-15669.84;;;3.60;100.00
6859;BME280;3468;42.824;23.240;2022-11-14T06:21:13;-15667.84;;;3.51;100.00
6859;BME280;3468;42.824;23.240;2022-11-14T06:23:41;-15667.72;;;3.51;100.00
6859;BME280;3468;42.824;23.240;2022-11-14T06:26:13;-15669.13;;;3.57;100.00
6859;BME280;3468;42.824;23.240;2022-11-14T06:28:40;-15669.38;;;3.58;100.00
6859;BME280;3468;42.824;23.240;2022-11-14T06:31:07;-15669.94;;;3.60;100.00
6859;BME280;3468;42.824;23.240;2022-11-14T06:33:35;-15671.94;;;3.68;100.00
6859;BME280;3468;42.824;23.240;2022-11-14T06:36:03;-15673.59;;;3.75;100.00
6859;BME280;3468;42.824;23.240;2022-11-14T06:38:33;-15672.88;;;3.72;100.00
6859;BME280;3468;42.824;23.240;2022-11-14T06:41:01;-15673.13;;;3.73;100.00
6859;BME280;3468;42.824;23.240;2022-11-14T06:43:31;-15672.53;;;3.71;100.00
6859;BME280;3468;42.824;23.240;2022-11-14T06:45:58;-15670.88;;;3.64;100.00
6859;BME280;3468;42.824;23.240;2022-11-14T06:48:25;-15672.75;;;3.72;100.00
6859;BME280;3468;42.824;23.240;2022-11-14T06:50:52;-15674.16;;;3.78;100.00
6859;BME280;3468;42.824;23.240;2022-11-14T06:53:19;-15673.13;;;3.73;100.00
6859;BME280;3468;42.824;23.240;2022-11-14T06:55:56;-15674.28;;;3.78;100.00
6859;BME280;3468;42.824;23.240;2022-11-14T06:58:24;-15675.00;;;3.81;100.00
6859;BME280;3468;42.824;23.240;2022-11-14T07:00:53;-15675.09;;;3.82;100.00
6859;BME280;3468;42.824;23.240;2022-11-14T07:03:20;-15676.50;;;3.88;100.00
6859;BME280;3468;42.824;23.240;2022-11-14T07:05:47;-15675.44;;;3.83;100.00
6859;BME280;3468;42.824;23.240;2022-11-14T07:08:14;-15675.91;;;3.85;100.00
6859;BME280;3468;42.824;23.240;2022-11-14T07:10:40;-15674.88;;;3.81;100.00
6859;BME280;3468;42.824;23.240;2022-11-14T07:13:08;-15675.44;;;3.83;100.00
6859;BME280;3468;42.824;23.240;2022-11-14T07:15:36;-15673.59;;;3.75;100.00
6859;BME280;3468;42.824;23.240;2022-11-14T07:18:03;-15672.88;;;3.72;100.00
6859;BME280;3468;42.824;23.240;2022-11-14T07:20:30;-15677.31;;;3.91;100.00
6859;BME280;3468;42.824;23.240;2022-11-14T07:22:57;-15678.84;;;3.98;100.00
6859;BME280;3468;42.824;23.240;2022-11-14T07:25:24;-15679.78;;;4.02;100.00
6859;BME280;3468;42.824;23.240;2022-11-14T07:27:50;-15680.59;;;4.05;100.00
6859;BME280;3468;42.824;23.240;2022-11-14T07:30:18;-15679.09;;;3.99;100.00
6859;BME280;3468;42.824;23.240;2022-11-14T07:32:45;-15677.69;;;3.93;100.00
6859;BME280;3468;42.824;23.240;2022-11-14T07:35:12;-15678.84;;;3.98;100.00
6859;BME280;3468;42.824;23.240;2022-11-14T07:37:39;-15684.00;;;4.19;100.00
6859;BME280;3468;42.824;23.240;2022-11-14T07:40:06;-15682.59;;;4.13;100.00
6859;BME280;3468;42.824;23.240;2022-11-14T07:42:33;-15688.44;;;4.38;100.00
6859;BME280;3468;42.824;23.240;2022-11-14T07:45:00;-15689.97;;;4.45;100.00
6859;BME280;3468;42.824;23.240;2022-11-14T07:47:28;-15691.59;;;4.51;100.00
6859;BME280;3468;42.824;23.240;2022-11-14T07:49:55;-15692.88;;;4.57;100.00
6859;BME280;3468;42.824;23.240;2022-11-14T07:52:22;-15693.47;;;4.59;100.00
6859;BME280;3468;42.824;23.240;2022-11-14T07:54:49;-15691.38;;;4.51;100.00
6859;BME280;3468;42.824;23.240;2022-11-14T07:57:15;-15695.34;;;4.67;100.00
6859;BME280;3468;42.824;23.240;2022-11-14T07:59:42;-15697.44;;;4.76;100.00
6859;BME280;3468;42.824;23.240;2022-11-14T08:02:11;-15696.63;;;4.73;100.00
6859;BME280;3468;42.824;23.240;2022-11-14T08:04:39;-15696.63;;;4.73;100.00
6859;BME280;3468;42.824;23.240;2022-11-14T08:07:06;-15696.75;;;4.73;100.00
6859;BME280;3468;42.824;23.240;2022-11-14T08:09:33;-15696.97;;;4.74;100.00
6859;BME280;3468;42.824;23.240;2022-11-14T08:12:00;-15696.50;;;4.72;100.00
6859;BME280;3468;42.824;23.240;2022-11-14T08:14:27;-15694.28;;;4.63;100.00
6859;BME280;3468;42.824;23.240;2022-11-14T08:16:54;-15691.25;;;4.50;100.00
6859;BME280;3468;42.824;23.240;2022-11-14T08:19:20;-15693.81;;;4.61;100.00
6859;BME280;3468;42.824;23.240;2022-11-14T08:21:48;-15697.09;;;4.75;100.00
6859;BME280;3468;42.824;23.240;2022-11-14T08:24:15;-15698.84;;;4.82;100.00
6859;BME280;3468;42.824;23.240;2022-11-14T08:26:42;-15699.44;;;4.85;100.00
6859;BME280;3468;42.824;23.240;2022-11-14T08:29:09;-15702.34;;;4.97;100.00
6859;BME280;3468;42.824;23.240;2022-11-14T08:31:35;-15702.34;;;4.97;100.00
6859;BME280;3468;42.824;23.240;2022-11-14T08:34:02;-15707.63;;;5.19;100.00
6859;BME280;3468;42.824;23.240;2022-11-14T08:36:29;-15711.47;;;5.35;100.00
6859;BME280;3468;42.824;23.240;2022-11-14T08:38:57;-15712.41;;;5.39;100.00
6859;BME280;3468;42.824;23.240;2022-11-14T08:41:23;-15710.09;;;5.30;100.00
6859;BME280;3468;42.824;23.240;2022-11-14T08:43:50;-15709.84;;;5.29;100.00
6859;BME280;3468;42.824;23.240;2022-11-14T08:46:17;-15714.16;;;5.47;100.00
6859;BME280;3468;42.824;23.240;2022-11-14T08:48:44;-15716.16;;;5.55;100.00
6859;BME280;3468;42.824;23.240;2022-11-14T08:51:10;-15717.31;;;5.60;100.00
6859;BME280;3468;42.824;23.240;2022-11-14T08:53:37;-15720.59;;;5.74;100.00
6859;BME280;3468;42.824;23.240;2022-11-14T08:56:07;-15721.53;;;5.78;100.00
6859;BME280;3468;42.824;23.240;2022-11-14T08:58:34;-15718.72;;;5.66;100.00
6859;BME280;3468;42.824;23.240;2022-11-14T09:01:01;-15718.03;;;5.63;100.00
6859;BME280;3468;42.824;23.240;2022-11-14T09:03:28;-15717.56;;;5.61;100.00
6859;BME280;3468;42.824;23.240;2022-11-14T09:05:54;-15717.22;;;5.60;100.00
6859;BME280;3468;42.824;23.240;2022-11-14T09:08:22;-15708.91;;;5.25;100.00
6859;BME280;3468;42.824;23.240;2022-11-14T09:10:49;-15713.34;;;5.43;100.00
6859;BME280;3468;42.824;23.240;2022-11-14T09:13:17;-15715.22;;;5.51;100.00
6859;BME280;3468;42.824;23.240;2022-11-14T09:15:44;-15715.00;;;5.50;100.00
6859;BME280;3468;42.824;23.240;2022-11-14T09:18:11;-15708.78;;;5.24;100.00
6859;BME280;3468;42.824;23.240;2022-11-14T09:20:38;-15711.72;;;5.36;100.00
6859;BME280;3468;42.824;23.240;2022-11-14T09:23:05;-15716.63;;;5.57;100.00
6859;BME280;3468;42.824;23.240;2022-11-14T09:25:31;-15716.16;;;5.55;100.00
6859;BME280;3468;42.824;23.240;2022-11-14T09:28:03;-15717.31;;;5.60;100.00
6859;BME280;3468;42.824;23.240;2022-11-14T09:30:31;-15715.09;;;5.51;100.00
6859;BME280;3468;42.824;23.240;2022-11-14T09:32:59;-15710.53;;;5.32;100.00
6859;BME280;3468;42.824;23.240;2022-11-14T09:35:26;-15707.28;;;5.18;100.00
6859;BME280;3468;42.824;23.240;2022-11-14T09:38:00;-15713.94;;;5.46;100.00
6859;BME280;3468;42.824;23.240;2022-11-14T09:40:28;-15717.91;;;5.63;100.00
6859;BME280;3468;42.824;23.240;2022-11-14T09:43:09;-15719.53;;;5.70;100.00
6859;BME280;3468;42.824;23.240;2022-11-14T09:45:45;-15720.00;;;5.72;100.00
6859;BME280;3468;42.824;23.240;2022-11-14T09:48:18;-15712.88;;;5.41;100.00
6859;BME280;3468;42.824;23.240;2022-11-14T09:50:52;-15716.75;;;5.58;100.00
6859;BME280;3468;42.824;23.240;2022-11-14T09:53:29;-15719.91;;;5.71;100.00
6859;BME280;3468;42.824;23.240;2022-11-14T09:55:57;-15716.03;;;5.55;100.00
6859;BME280;3468;42.824;23.240;2022-11-14T09:58:25;-15716.75;;;5.58;100.00
6859;BME280;3468;42.824;23.240;2022-11-14T10:00:55;-15720.59;;;5.74;100.00
6859;BME280;3468;42.824;23.240;2022-11-14T10:03:32;-15721.06;;;5.76;100.00
6859;BME280;3468;42.824;23.240;2022-11-14T10:06:17;-15716.16;;;5.55;100.00
6859;BME280;3468;42.824;23.240;2022-11-14T10:09:05;-15719.91;;;5.71;100.00
6859;BME280;3468;42.824;23.240;2022-11-14T10:11:38;-15719.19;;;5.68;100.00
6859;BME280;3468;42.824;23.240;2022-11-14T10:17:23;-15720.13;;;5.72;100.00
6859;BME280;3468;42.824;23.240;2022-11-14T10:19:58;-15719.19;;;5.68;100.00
6859;BME280;3468;42.824;23.240;2022-11-14T10:22:43;-15717.91;;;5.63;100.00
6859;BME280;3468;42.824;23.240;2022-11-14T10:25:21;-15721.53;;;5.78;100.00
6859;BME280;3468;42.824;23.240;2022-11-14T10:28:00;-15717.78;;;5.62;100.00
6859;BME280;3468;42.824;23.240;2022-11-14T10:30:34;-15720.94;;;5.76;100.00
6859;BME280;3468;42.824;23.240;2022-11-14T10:33:18;-15723.53;;;5.86;100.00
6859;BME280;3468;42.824;23.240;2022-11-14T10:35:48;-15725.41;;;5.94;100.00
6859;BME280;3468;42.824;23.240;2022-11-14T10:38:24;-15729.00;;;6.10;100.00
6859;BME280;3468;42.824;23.240;2022-11-14T10:40:53;-15733.47;;;6.28;100.00
6859;BME280;3468;42.824;23.240;2022-11-14T10:43:25;-15739.28;;;6.53;100.00
6859;BME280;3468;42.824;23.240;2022-11-14T10:46:00;-15738.34;;;6.49;100.00
6859;BME280;3468;42.824;23.240;2022-11-14T10:48:32;-15741.28;;;6.61;100.00
6859;BME280;3468;42.824;23.240;2022-11-14T10:51:02;-15740.22;;;6.57;100.00
6859;BME280;3468;42.824;23.240;2022-11-14T10:53:43;-15741.63;;;6.63;100.00
6859;BME280;3468;42.824;23.240;2022-11-14T10:56:12;-15740.59;;;6.58;100.00
6859;BME280;3468;42.824;23.240;2022-11-14T10:58:39;-15738.59;;;6.50;100.00
6859;BME280;3468;42.824;23.240;2022-11-14T11:01:31;-15744.66;;;6.76;100.00
6859;BME280;3468;42.824;23.240;2022-11-14T11:04:10;-15747.22;;;6.87;100.00
6859;BME280;3468;42.824;23.240;2022-11-14T11:06:37;-15747.00;;;6.86;100.00
6859;BME280;3468;42.824;23.240;2022-11-14T11:09:07;-15747.22;;;6.87;100.00
6859;BME280;3468;42.824;23.240;2022-11-14T11:11:56;-15751.91;;;7.06;100.00
6859;BME280;3468;42.824;23.240;2022-11-14T11:14:24;-15750.84;;;7.02;100.00
6859;BME280;3468;42.824;23.240;2022-11-14T11:17:06;-15754.72;;;7.18;100.00
6859;BME280;3468;42.824;23.240;2022-11-14T11:19:34;-15757.41;;;7.30;100.00
6859;BME280;3468;42.824;23.240;2022-11-14T11:22:01;-15759.38;;;7.38;100.00
6859;BME280;3468;42.824;23.240;2022-11-14T11:24:33;-15759.84;;;7.40;100.00
6859;BME280;3468;42.824;23.240;2022-11-14T11:27:18;-15765.44;;;7.64;100.00
6859;BME280;3468;42.824;23.240;2022-11-14T11:29:55;-15770.81;;;7.86;100.00
6859;BME280;3468;42.824;23.240;2022-11-14T11:32:26;-15773.25;;;7.97;100.00
6859;BME280;3468;42.824;23.240;2022-11-14T11:34:56;-15780.38;;;8.27;100.00
6859;BME280;3468;42.824;23.240;2022-11-14T11:37:25;-15778.97;;;8.21;100.00
6859;BME280;3468;42.824;23.240;2022-11-14T11:39:54;-15795.31;;;8.90;100.00
6859;BME280;3468;42.824;23.240;2022-11-14T11:42:24;-15795.31;;;8.90;100.00
6859;BME280;3468;42.824;23.240;2022-11-14T11:44:56;-15794.38;;;8.86;100.00
6859;BME280;3468;42.824;23.240;2022-11-14T11:47:25;-15796.13;;;8.94;100.00
6859;BME280;3468;42.824;23.240;2022-11-14T11:49:56;-15803.00;;;9.23;100.00
6859;BME280;3468;42.824;23.240;2022-11-14T11:52:30;-15816.28;;;9.79;100.00
6859;BME280;3468;42.824;23.240;2022-11-14T11:55:02;-15828.63;;;10.31;100.00
6859;BME280;3468;42.824;23.240;2022-11-14T11:57:33;-15839.81;;;10.79;98.77
6859;BME280;3468;42.824;23.240;2022-11-14T12:00:06;-15852.25;;;11.32;98.91
6859;BME280;3468;42.824;23.240;2022-11-14T12:02:40;-15863.31;;;11.79;96.18
6859;BME280;3468;42.824;23.240;2022-11-14T12:05:13;-15868.91;;;12.02;93.48
6859;BME280;3468;42.824;23.240;2022-11-14T12:07:45;-15871.22;;;12.12;91.39
6859;BME280;3468;42.824;23.240;2022-11-14T12:10:19;-15873.19;;;12.21;91.08
6859;BME280;3468;42.824;23.240;2022-11-14T12:13:13;-15877.03;;;12.37;90.93
6859;BME280;3468;42.824;23.240;2022-11-14T12:15:47;-15873.31;;;12.21;90.89
6859;BME280;3468;42.824;23.240;2022-11-14T12:21:40;-15881.91;;;12.58;90.37
6859;BME280;3468;42.824;23.240;2022-11-14T12:27:14;-15880.16;;;12.50;89.64
6859;BME280;3468;42.824;23.240;2022-11-14T12:30:01;-15873.06;;;12.20;90.62
6859;BME280;3468;42.824;23.240;2022-11-14T12:32:32;-15870.88;;;12.11;91.66
6859;BME280;3468;42.824;23.240;2022-11-14T12:35:03;-15875.06;;;12.29;90.65
6859;BME280;3468;42.824;23.240;2022-11-14T12:37:33;-15877.25;;;12.38;90.79
6859;BME280;3468;42.824;23.240;2022-11-14T12:40:03;-15881.44;;;12.56;91.13
6859;BME280;3468;42.824;23.240;2022-11-14T12:42:31;-15885.88;;;12.75;90.79
6859;BME280;3468;42.824;23.240;2022-11-14T12:44:58;-15888.31;;;12.85;88.50
6859;BME280;3468;42.824;23.240;2022-11-14T12:47:26;-15888.66;;;12.86;88.69
6859;BME280;3468;42.824;23.240;2022-11-14T12:50:12;-15889.69;;;12.91;87.88
6859;BME280;3468;42.824;23.240;2022-11-14T12:52:53;-15893.31;;;13.06;87.56
6859;BME280;3468;42.824;23.240;2022-11-14T12:55:53;-15897.72;;;13.25;87.19
6859;BME280;3468;42.824;23.240;2022-11-14T12:58:42;-15898.53;;;13.28;86.03
6859;BME280;3468;42.824;23.240;2022-11-14T13:01:30;-15904.22;;;13.53;87.17
6859;BME280;3468;42.824;23.240;2022-11-14T13:04:16;-15906.44;;;13.62;84.97
6859;BME280;3468;42.824;23.240;2022-11-14T13:06:52;-15906.44;;;13.62;85.81
6859;BME280;3468;42.824;23.240;2022-11-14T13:09:31;-15906.53;;;13.63;86.25
6859;BME280;3468;42.824;23.240;2022-11-14T13:12:18;-15899.47;;;13.32;85.68
6859;BME280;3468;42.824;23.240;2022-11-14T13:15:21;-15910.50;;;13.79;85.55
6859;BME280;3468;42.824;23.240;2022-11-14T13:18:19;-15912.00;;;13.86;84.73
6859;BME280;3468;42.824;23.240;2022-11-14T13:21:13;-15910.72;;;13.80;85.00
6859;BME280;3468;42.824;23.240;2022-11-14T13:23:59;-15906.06;;;13.61;84.94